Time;durP1;ratioP1;P1;durP2;ratioP2;P2;SDS_P1;SDS_P2;PMS_P1;PMS_P2;Temp;Humidity;BMP_temperature;BMP_pressure;BME280_temperature;BME280_humidity;BME280_pressure;Samples;Min_cycle;Max_cycle;Signal;HPM_P1;HPM_P2
2021/08/19 00:02:06;;;;;;;1.10;1.00;;;19.80;99.90;;;;;;5032877;28;20181;-59
2021/08/19 00:04:32;;;;;;;1.70;1.27;;;19.60;99.90;;;;;;5032784;28;20174;-59
2021/08/19 00:06:57;;;;;;;1.67;1.57;;;19.70;99.90;;;;;;5032568;28;20195;-59
2021/08/19 00:09:23;;;;;;;1.40;1.23;;;19.70;99.90;;;;;;5032524;28;20217;-59
2021/08/19 00:11:48;;;;;;;1.53;1.30;;;19.70;99.90;;;;;;5032688;28;20719;-59
2021/08/19 00:14:14;;;;;;;1.30;1.20;;;19.60;99.90;;;;;;5032897;28;20163;-59
2021/08/19 00:16:40;;;;;;;1.57;1.47;;;19.70;99.90;;;;;;5032951;28;20195;-59
2021/08/19 00:19:05;;;;;;;1.50;1.20;;;19.80;99.90;;;;;;5033213;28;20163;-58
2021/08/19 00:21:31;;;;;;;1.57;1.33;;;19.80;99.90;;;;;;5032910;28;20176;-59
2021/08/19 00:23:58;;;;;;;1.53;1.23;;;19.80;99.90;;;;;;5032660;28;20199;-58
2021/08/19 00:26:24;;;;;;;1.77;1.40;;;19.70;99.90;;;;;;5035240;28;20643;-59
2021/08/19 00:28:50;;;;;;;1.20;1.10;;;19.80;99.90;;;;;;5027126;28;20794;-59
2021/08/19 00:31:15;;;;;;;2.40;1.70;;;19.80;99.90;;;;;;5022204;28;20442;-59
2021/08/19 00:33:43;;;;;;;1.43;1.30;;;19.70;99.90;;;;;;5016682;28;20325;-59
2021/08/19 00:36:08;;;;;;;1.30;1.20;;;19.70;99.90;;;;;;5026624;28;20211;-57
2021/08/19 00:38:34;;;;;;;1.20;1.10;;;19.50;99.90;;;;;;5023087;28;20532;-58
2021/08/19 00:41:00;;;;;;;1.80;1.20;;;19.40;99.90;;;;;;5027643;28;20230;-58
2021/08/19 00:43:25;;;;;;;1.40;1.30;;;19.30;99.90;;;;;;5036719;28;20251;-58
2021/08/19 00:45:51;;;;;;;1.43;1.33;;;19.20;99.90;;;;;;5036342;28;20171;-57
2021/08/19 00:48:17;;;;;;;4.43;1.43;;;19.10;99.90;;;;;;5036629;28;20600;-56
2021/08/19 00:50:44;;;;;;;3.97;1.23;;;19.10;99.90;;;;;;5036495;28;20182;-58
2021/08/19 00:53:10;;;;;;;1.53;1.30;;;19.10;99.90;;;;;;5036637;28;20195;-57
2021/08/19 00:55:36;;;;;;;1.10;1.00;;;19.20;99.90;;;;;;5035438;28;20398;-55
2021/08/19 00:58:02;;;;;;;1.37;1.10;;;19.20;99.90;;;;;;5035289;28;20422;-58
2021/08/19 01:00:27;;;;;;;4.03;1.10;;;19.10;99.90;;;;;;5036216;28;20208;-59
2021/08/19 01:02:57;;;;;;;1.93;1.10;;;19.20;99.90;;;;;;5036218;28;20205;-57
2021/08/19 01:05:26;;;;;;;1.27;1.17;;;19.10;99.90;;;;;;5035534;28;20258;-58
2021/08/19 01:07:52;;;;;;;1.20;1.10;;;19.20;99.90;;;;;;5035944;28;20502;-59
2021/08/19 01:10:17;;;;;;;1.43;1.20;;;19.10;99.90;;;;;;5036125;28;20406;-59
2021/08/19 01:12:47;;;;;;;1.40;1.10;;;19.10;99.90;;;;;;5035602;28;20194;-59
2021/08/19 01:15:13;;;;;;;1.63;1.10;;;19.10;99.90;;;;;;5035882;28;20167;-59
2021/08/19 01:17:39;;;;;;;1.90;1.27;;;19.20;99.90;;;;;;5035368;28;20457;-59
2021/08/19 01:20:07;;;;;;;4.80;1.20;;;19.20;99.90;;;;;;5035240;28;20484;-59
2021/08/19 01:22:33;;;;;;;1.30;1.10;;;19.10;99.90;;;;;;5035706;28;20182;-59
2021/08/19 01:24:59;;;;;;;1.20;1.03;;;19.20;99.90;;;;;;5034543;28;20791;-59
2021/08/19 01:27:24;;;;;;;1.27;1.10;;;19.20;99.90;;;;;;5035366;28;20430;-59
2021/08/19 01:29:51;;;;;;;1.47;1.10;;;19.20;99.90;;;;;;5035281;28;20178;-59
2021/08/19 01:32:18;;;;;;;1.30;1.20;;;19.20;99.90;;;;;;5035430;28;20257;-59
2021/08/19 01:34:44;;;;;;;1.23;1.00;;;19.30;99.90;;;;;;5034902;28;20509;-59
2021/08/19 01:37:11;;;;;;;1.20;1.10;;;19.40;99.90;;;;;;5035071;28;20457;-59
2021/08/19 01:39:36;;;;;;;1.57;0.90;;;19.30;99.90;;;;;;5035201;28;20406;-60
2021/08/19 01:42:03;;;;;;;1.43;1.33;;;19.30;99.90;;;;;;5034943;28;20406;-59
2021/08/19 01:44:29;;;;;;;1.30;1.20;;;19.30;99.90;;;;;;5034334;28;20171;-59
2021/08/19 01:47:03;;;;;;;2.20;1.20;;;19.40;99.90;;;;;;5035340;28;20430;-59
2021/08/19 01:49:30;;;;;;;3.73;1.13;;;19.40;99.90;;;;;;5035692;28;20443;-59
2021/08/19 01:51:57;;;;;;;1.40;1.00;;;19.50;99.90;;;;;;5035486;28;20454;-59
2021/08/19 01:54:25;;;;;;;1.37;1.27;;;19.40;99.90;;;;;;5034800;28;20410;-59
2021/08/19 01:56:50;;;;;;;1.43;1.33;;;19.40;99.90;;;;;;5034731;28;20457;-58
2021/08/19 01:59:16;;;;;;;3.53;1.30;;;19.40;99.90;;;;;;5035247;28;20399;-58
2021/08/19 02:01:42;;;;;;;1.20;1.10;;;19.50;99.90;;;;;;5017138;28;20261;-58
2021/08/19 02:04:07;;;;;;;1.40;1.13;;;19.60;99.90;;;;;;5035067;28;20176;-58
2021/08/19 02:06:33;;;;;;;1.27;1.03;;;19.60;99.90;;;;;;5034476;28;20202;-59
2021/08/19 02:08:58;;;;;;;1.03;1.00;;;19.50;99.90;;;;;;5034822;28;20183;-59
2021/08/19 02:11:24;;;;;;;1.00;0.90;;;19.60;99.90;;;;;;5034988;28;20202;-58
2021/08/19 02:13:50;;;;;;;1.13;1.03;;;19.50;99.90;;;;;;5034384;28;20585;-58
2021/08/19 02:16:16;;;;;;;3.53;1.50;;;19.50;99.90;;;;;;5034567;28;20620;-58
2021/08/19 02:18:42;;;;;;;1.37;1.27;;;19.50;99.90;;;;;;5034338;28;20773;-59
2021/08/19 02:21:08;;;;;;;2.27;1.13;;;19.40;99.90;;;;;;5034375;28;20418;-58
2021/08/19 02:23:34;;;;;;;2.00;1.10;;;19.40;99.90;;;;;;5034032;28;20214;-59
2021/08/19 02:26:00;;;;;;;1.50;1.27;;;19.50;99.90;;;;;;5034268;28;20298;-56
2021/08/19 02:28:26;;;;;;;1.07;0.97;;;19.40;99.90;;;;;;5034919;28;20942;-55
2021/08/19 02:30:51;;;;;;;1.50;1.23;;;19.50;99.90;;;;;;5034474;28;20179;-55
2021/08/19 02:33:17;;;;;;;1.40;1.30;;;19.40;99.90;;;;;;5034722;28;20184;-55
2021/08/19 02:35:42;;;;;;;2.13;1.10;;;19.30;99.90;;;;;;5036545;28;20176;-59
2021/08/19 02:38:08;;;;;;;1.20;1.10;;;19.30;99.90;;;;;;5034167;28;20183;-57
2021/08/19 02:40:36;;;;;;;1.67;1.57;;;19.40;99.90;;;;;;5034608;28;20163;-58
2021/08/19 02:43:03;;;;;;;2.10;1.20;;;19.40;99.90;;;;;;5034165;28;20177;-58
2021/08/19 02:45:29;;;;;;;1.53;1.17;;;19.40;99.90;;;;;;5057836;22;20485;-63
2021/08/19 02:47:54;;;;;;;1.70;1.30;;;19.50;99.90;;;;;;5033922;28;20397;-62
2021/08/19 02:50:20;;;;;;;1.63;1.53;;;19.40;99.90;;;;;;5034670;28;20246;-62
2021/08/19 02:52:46;;;;;;;1.90;1.10;;;19.30;99.90;;;;;;5033984;28;20180;-62
2021/08/19 02:55:12;;;;;;;1.30;1.20;;;19.30;99.90;;;;;;5033239;28;20196;-63
2021/08/19 02:57:38;;;;;;;1.23;1.13;;;19.30;99.90;;;;;;5033677;28;20234;-62
2021/08/19 03:00:07;;;;;;;1.63;1.17;;;19.30;99.90;;;;;;5033814;28;20453;-62
2021/08/19 03:02:33;;;;;;;1.47;1.37;;;19.20;99.90;;;;;;5033502;28;20163;-62
2021/08/19 03:04:58;;;;;;;1.37;1.27;;;19.20;99.90;;;;;;5033395;28;20417;-63
2021/08/19 03:07:24;;;;;;;1.40;1.27;;;19.20;99.90;;;;;;5033766;28;20175;-63
2021/08/19 03:09:51;;;;;;;1.57;1.40;;;19.30;99.90;;;;;;5033348;28;20178;-63
2021/08/19 03:12:16;;;;;;;2.07;1.30;;;19.10;99.90;;;;;;5033378;28;20187;-63
2021/08/19 03:14:42;;;;;;;2.27;1.33;;;19.10;99.90;;;;;;5033624;28;20408;-63
2021/08/19 03:17:08;;;;;;;4.40;1.30;;;19.10;99.90;;;;;;5032986;28;20175;-63
2021/08/19 03:19:35;;;;;;;1.93;1.43;;;19.10;99.90;;;;;;5033629;28;20174;-62
2021/08/19 03:22:01;;;;;;;1.77;1.10;;;19.00;99.90;;;;;;5033232;28;20182;-61
2021/08/19 03:24:28;;;;;;;1.37;1.27;;;19.10;99.90;;;;;;5033167;28;20928;-61
2021/08/19 03:26:54;;;;;;;1.37;1.27;;;19.30;99.90;;;;;;5033457;28;20430;-61
2021/08/19 03:29:20;;;;;;;2.17;1.40;;;19.20;99.90;;;;;;5033417;28;20398;-62
2021/08/19 03:31:45;;;;;;;1.30;1.20;;;19.20;99.90;;;;;;5020392;28;20455;-62
2021/08/19 03:34:11;;;;;;;1.83;1.33;;;19.20;99.90;;;;;;5013362;28;20179;-62
2021/08/19 03:36:37;;;;;;;1.30;1.20;;;19.00;99.90;;;;;;5013316;28;20184;-62
2021/08/19 03:39:04;;;;;;;4.13;1.27;;;19.10;99.90;;;;;;5013393;28;20168;-62
2021/08/19 03:41:29;;;;;;;1.33;1.23;;;19.10;99.90;;;;;;5013545;28;20180;-62
2021/08/19 03:43:55;;;;;;;1.40;1.30;;;19.00;99.90;;;;;;5013348;28;20414;-62
2021/08/19 03:46:21;;;;;;;2.10;1.33;;;18.90;99.90;;;;;;5025324;28;20226;-62
2021/08/19 03:48:46;;;;;;;1.60;1.50;;;18.90;99.90;;;;;;5015228;28;20179;-63
2021/08/19 03:51:12;;;;;;;2.70;1.13;;;18.90;99.90;;;;;;5033106;28;20449;-63
2021/08/19 03:53:38;;;;;;;2.00;1.30;;;18.90;99.90;;;;;;5032800;28;20167;-63
2021/08/19 03:56:04;;;;;;;1.90;1.27;;;18.90;99.90;;;;;;5033095;28;20187;-62
2021/08/19 03:58:30;;;;;;;1.80;1.37;;;19.00;99.90;;;;;;5033119;28;20167;-63
2021/08/19 04:00:56;;;;;;;1.77;1.50;;;18.90;99.90;;;;;;5032606;28;20464;-63
2021/08/19 04:03:21;;;;;;;1.47;1.37;;;18.80;99.90;;;;;;5033399;28;20402;-64
2021/08/19 04:05:47;;;;;;;2.40;1.80;;;18.70;99.90;;;;;;5032744;28;20565;-63
2021/08/19 04:08:12;;;;;;;1.60;1.50;;;18.70;99.90;;;;;;5036834;28;20195;-63
2021/08/19 04:10:38;;;;;;;2.93;1.87;;;18.70;99.90;;;;;;5036559;28;20213;-63
2021/08/19 04:13:04;;;;;;;2.40;1.40;;;18.50;99.90;;;;;;5036655;28;20230;-63
2021/08/19 04:15:29;;;;;;;1.70;1.60;;;18.50;99.90;;;;;;5036275;28;20593;-63
2021/08/19 04:17:55;;;;;;;1.47;1.37;;;18.60;99.90;;;;;;5036629;28;20199;-61
2021/08/19 04:20:21;;;;;;;1.93;1.60;;;18.60;99.90;;;;;;5036578;28;20707;-62
2021/08/19 04:22:47;;;;;;;1.70;1.60;;;18.70;99.90;;;;;;5037091;28;20217;-62
2021/08/19 04:25:13;;;;;;;1.60;1.40;;;18.70;99.90;;;;;;5036203;28;20933;-62
2021/08/19 04:27:39;;;;;;;1.83;1.53;;;18.70;99.90;;;;;;5036517;28;20671;-62
2021/08/19 04:30:06;;;;;;;2.27;2.07;;;18.70;99.90;;;;;;5036587;28;20176;-62
2021/08/19 04:32:32;;;;;;;1.70;1.50;;;18.80;99.90;;;;;;5037101;28;20449;-62
2021/08/19 04:34:57;;;;;;;1.67;1.57;;;18.90;99.90;;;;;;5036777;28;20425;-62
2021/08/19 04:37:23;;;;;;;2.50;1.40;;;18.70;99.90;;;;;;5036347;28;20394;-62
2021/08/19 04:39:49;;;;;;;2.10;1.50;;;18.70;99.90;;;;;;5036092;28;20170;-62
2021/08/19 04:42:14;;;;;;;1.63;1.50;;;18.60;99.90;;;;;;5025981;28;20182;-62
2021/08/19 04:44:40;;;;;;;1.37;1.27;;;18.60;99.90;;;;;;5016409;28;20649;-62
2021/08/19 04:47:06;;;;;;;1.87;1.77;;;18.70;99.90;;;;;;5034274;28;20211;-63
2021/08/19 04:49:32;;;;;;;2.20;1.83;;;18.70;99.90;;;;;;5036266;28;20221;-63
2021/08/19 04:51:57;;;;;;;3.80;1.87;;;18.70;99.90;;;;;;5036226;28;20187;-63
2021/08/19 04:54:23;;;;;;;1.80;1.60;;;18.70;99.90;;;;;;5035804;28;20968;-63
2021/08/19 04:56:48;;;;;;;2.97;1.37;;;18.80;99.90;;;;;;5035947;28;20222;-63
2021/08/19 04:59:14;;;;;;;1.63;1.53;;;18.70;99.90;;;;;;5035862;28;20630;-63
2021/08/19 05:01:40;;;;;;;3.80;1.70;;;18.80;99.90;;;;;;5035935;28;20190;-63
2021/08/19 05:04:06;;;;;;;2.40;1.23;;;18.80;99.90;;;;;;5036060;28;20534;-63
2021/08/19 05:06:33;;;;;;;1.73;1.63;;;18.80;99.90;;;;;;5035670;28;20541;-62
2021/08/19 05:09:00;;;;;;;1.60;1.43;;;18.80;99.90;;;;;;5035660;28;20504;-62
2021/08/19 05:11:26;;;;;;;2.20;1.60;;;18.80;99.90;;;;;;5035795;28;20858;-62
2021/08/19 05:13:53;;;;;;;1.83;1.47;;;18.70;99.90;;;;;;5036072;28;20436;-61
2021/08/19 05:16:19;;;;;;;2.50;1.50;;;18.90;99.90;;;;;;5035663;28;20790;-62
2021/08/19 05:18:45;;;;;;;3.77;1.40;;;19.00;99.90;;;;;;5035261;28;20907;-62
2021/08/19 05:21:14;;;;;;;2.63;1.67;;;18.90;99.90;;;;;;5035409;28;20460;-62
2021/08/19 05:23:40;;;;;;;2.60;1.50;;;18.70;99.90;;;;;;5035763;28;20398;-62
2021/08/19 05:26:06;;;;;;;1.80;1.70;;;18.80;99.90;;;;;;5035397;28;20496;-61
2021/08/19 05:28:32;;;;;;;1.20;1.10;;;18.70;99.90;;;;;;5035877;28;20410;-62
2021/08/19 05:30:58;;;;;;;1.47;1.30;;;18.80;99.90;;;;;;5035011;28;20764;-62
2021/08/19 05:33:24;;;;;;;2.73;1.87;;;18.90;99.90;;;;;;5035679;28;20489;-62
2021/08/19 05:35:49;;;;;;;1.70;1.60;;;18.90;99.90;;;;;;5035336;28;20183;-62
2021/08/19 05:38:15;;;;;;;1.60;1.47;;;18.80;99.90;;;;;;5035232;28;20171;-62
2021/08/19 05:40:41;;;;;;;1.97;1.53;;;19.00;99.90;;;;;;5035238;28;20182;-62
2021/08/19 05:43:06;;;;;;;3.07;1.80;;;19.00;99.90;;;;;;5035284;28;20206;-62
2021/08/19 05:45:33;;;;;;;1.50;1.40;;;19.20;99.90;;;;;;5034485;28;20211;-60
2021/08/19 05:48:01;;;;;;;1.73;1.57;;;19.30;99.90;;;;;;5034751;28;20182;-62
2021/08/19 05:50:27;;;;;;;2.13;1.80;;;19.40;99.90;;;;;;5035441;28;20418;-62
2021/08/19 05:52:52;;;;;;;2.33;1.33;;;19.40;99.90;;;;;;5034696;28;20437;-62
2021/08/19 05:55:18;;;;;;;2.83;1.77;;;19.30;99.90;;;;;;5034430;28;20188;-62
2021/08/19 05:57:46;;;;;;;1.60;1.43;;;19.50;99.90;;;;;;5034830;28;20201;-62
2021/08/19 06:00:13;;;;;;;2.00;1.80;;;19.60;99.90;;;;;;5034917;28;20186;-63
2021/08/19 06:02:39;;;;;;;2.33;1.70;;;19.40;99.90;;;;;;5034741;28;20414;-63
2021/08/19 06:05:05;;;;;;;1.53;1.30;;;19.50;99.90;;;;;;5034744;28;20476;-62
2021/08/19 06:07:31;;;;;;;2.63;1.67;;;19.50;99.90;;;;;;5034683;28;20167;-63
2021/08/19 06:09:56;;;;;;;1.77;1.53;;;19.50;99.90;;;;;;5034589;28;20402;-63
2021/08/19 06:12:22;;;;;;;2.53;1.80;;;19.40;99.90;;;;;;5034520;28;20664;-62
2021/08/19 06:14:48;;;;;;;2.70;2.10;;;19.60;99.90;;;;;;5034328;28;20183;-62
2021/08/19 06:17:13;;;;;;;2.03;1.87;;;19.50;99.90;;;;;;5034111;28;20167;-62
2021/08/19 06:19:39;;;;;;;2.77;1.70;;;19.70;99.90;;;;;;5034678;28;20213;-62
2021/08/19 06:22:05;;;;;;;2.60;1.90;;;19.70;99.90;;;;;;5034652;28;20232;-63
2021/08/19 06:24:31;;;;;;;1.90;1.70;;;19.90;99.90;;;;;;5021909;28;20176;-63
2021/08/19 06:26:56;;;;;;;1.47;1.37;;;20.00;99.90;;;;;;5014531;28;20664;-64
2021/08/19 06:29:22;;;;;;;1.80;1.60;;;20.10;99.90;;;;;;5013864;28;20945;-62
2021/08/19 06:31:47;;;;;;;1.63;1.50;;;20.40;99.90;;;;;;5014210;28;20192;-62
2021/08/19 06:34:13;;;;;;;1.73;1.63;;;20.30;99.90;;;;;;5014363;28;20172;-63
2021/08/19 06:36:38;;;;;;;2.13;1.40;;;20.30;99.90;;;;;;5014752;28;20231;-63
2021/08/19 06:39:04;;;;;;;1.40;1.30;;;20.40;99.90;;;;;;5014613;28;20172;-63
2021/08/19 06:41:30;;;;;;;1.83;1.73;;;20.50;99.90;;;;;;5014300;28;20164;-62
2021/08/19 06:43:55;;;;;;;1.90;1.30;;;20.50;99.90;;;;;;5014638;28;20172;-62
2021/08/19 06:46:21;;;;;;;2.43;1.53;;;20.40;99.90;;;;;;5026064;28;20210;-62
2021/08/19 06:48:47;;;;;;;1.40;1.30;;;20.30;99.90;;;;;;5034400;28;20179;-62
2021/08/19 06:51:12;;;;;;;1.80;1.37;;;20.40;99.90;;;;;;5034002;28;20647;-62
2021/08/19 06:53:38;;;;;;;2.73;1.30;;;20.40;99.90;;;;;;5034128;28;20178;-63
2021/08/19 06:56:04;;;;;;;3.10;1.70;;;20.00;99.90;;;;;;5033764;28;20197;-63
2021/08/19 06:58:30;;;;;;;2.50;1.60;;;19.80;99.90;;;;;;5033706;28;20243;-63
2021/08/19 07:00:56;;;;;;;2.37;1.67;;;20.10;99.90;;;;;;5033800;28;20534;-63
2021/08/19 07:03:23;;;;;;;1.53;1.43;;;20.10;99.90;;;;;;5033776;28;20214;-63
2021/08/19 07:05:48;;;;;;;2.23;1.57;;;20.20;99.90;;;;;;5033891;28;20817;-63
2021/08/19 07:08:15;;;;;;;2.03;1.40;;;20.60;99.90;;;;;;5033671;28;20417;-63
2021/08/19 07:10:42;;;;;;;2.70;1.70;;;20.70;99.90;;;;;;5033602;28;20174;-63
2021/08/19 07:13:08;;;;;;;2.53;1.57;;;20.80;99.90;;;;;;5033540;28;20452;-63
2021/08/19 07:15:34;;;;;;;1.57;1.40;;;21.10;99.90;;;;;;5033526;28;20422;-63
2021/08/19 07:18:00;;;;;;;2.40;1.37;;;21.00;99.90;;;;;;5033438;28;20933;-63
2021/08/19 07:20:26;;;;;;;2.00;1.43;;;21.20;99.90;;;;;;5033288;28;20270;-63
2021/08/19 07:22:52;;;;;;;2.83;1.80;;;21.40;99.90;;;;;;5033805;28;20247;-62
2021/08/19 07:25:21;;;;;;;4.53;1.60;;;21.40;99.90;;;;;;5033438;28;20926;-63
2021/08/19 07:27:47;;;;;;;4.40;1.90;;;21.20;99.90;;;;;;5033530;28;20175;-63
2021/08/19 07:30:13;;;;;;;1.83;1.50;;;21.10;99.90;;;;;;5033721;28;20516;-62
2021/08/19 07:32:39;;;;;;;1.58;1.48;;;;;;;;;;5032541;28;20425;-63
2021/08/19 07:35:06;;;;;;;2.70;1.50;;;;;;;;;;5033190;28;20559;-63
2021/08/19 07:37:32;;;;;;;1.73;1.43;;;;;;;;;;5033078;28;20489;-63
2021/08/19 07:39:58;;;;;;;3.63;1.40;;;;;;;;;;5033006;28;20394;-63
2021/08/19 07:42:24;;;;;;;3.37;1.27;;;;;;;;;;5032549;28;20402;-63
2021/08/19 07:44:50;;;;;;;2.00;1.43;;;;;;;;;;5033204;28;20421;-64
2021/08/19 07:47:16;;;;;;;1.50;1.40;;;;;;;;;;5032940;28;20394;-63
2021/08/19 07:49:42;;;;;;;3.23;1.60;;;;;;;;;;5033442;28;20487;-63
2021/08/19 07:52:08;;;;;;;1.97;1.60;;;;;;;;;;5033419;28;21129;-63
2021/08/19 07:54:34;;;;;;;1.50;0.93;;;;;;;;;;5033050;28;20409;-63
2021/08/19 07:57:00;;;;;;;3.23;1.73;;;;;;;;;;5015113;28;20856;-63
2021/08/19 07:59:26;;;;;;;2.00;1.70;;;;;;;;;;5033013;28;20409;-63
2021/08/19 08:01:52;;;;;;;3.13;1.50;;;;;;;;;;5031958;28;20413;-63
2021/08/19 08:04:18;;;;;;;3.87;1.40;;;;;;;;;;5032993;28;20652;-63
2021/08/19 08:06:45;;;;;;;3.47;1.90;;;;;;;;;;5032552;28;20425;-63
2021/08/19 08:09:11;;;;;;;1.90;1.30;;;;;;;;;;5032896;28;20164;-63
2021/08/19 08:11:37;;;;;;;1.60;1.50;;;;;;;;;;5032647;28;20492;-63
2021/08/19 08:14:03;;;;;;;2.30;2.10;;;;;;;;;;5032912;28;20964;-62
2021/08/19 08:16:29;;;;;;;2.77;1.60;;;;;;;;;;5032437;28;20430;-62
2021/08/19 08:18:55;;;;;;;1.80;1.17;;;;;;;;;;5017791;28;20465;-64
2021/08/19 08:21:21;;;;;;;2.30;1.40;;;22.00;99.90;;;;;;5012468;28;20406;-63
2021/08/19 08:23:48;;;;;;;2.53;1.77;;;21.90;99.90;;;;;;5013294;28;20421;-62
2021/08/19 08:26:14;;;;;;;1.37;1.27;;;22.10;99.90;;;;;;5012318;28;20509;-63
2021/08/19 08:28:39;;;;;;;2.50;1.40;;;22.10;99.90;;;;;;5012229;28;21007;-62
2021/08/19 08:31:07;;;;;;;2.63;1.97;;;22.20;99.90;;;;;;5013134;28;20184;-62
2021/08/19 08:33:34;;;;;;;3.27;1.70;;;22.20;99.90;;;;;;5012757;28;20536;-62
2021/08/19 08:36:00;;;;;;;1.53;1.43;;;22.20;99.90;;;;;;5012699;28;20962;-62
2021/08/19 08:38:27;;;;;;;2.10;1.50;;;22.60;99.90;;;;;;5013159;28;20441;-62
2021/08/19 08:40:54;;;;;;;2.07;1.60;;;22.50;99.90;;;;;;5012865;28;20505;-62
2021/08/19 08:43:21;;;;;;;1.73;1.60;;;22.60;99.90;;;;;;5012738;28;20407;-62
2021/08/19 08:45:49;;;;;;;1.80;1.40;;;22.70;99.90;;;;;;5029450;22;20462;-58
2021/08/19 08:48:17;;;;;;;2.50;1.77;;;22.70;99.90;;;;;;4972433;28;20475;-59
2021/08/19 08:50:45;;;;;;;1.43;1.33;;;22.90;99.90;;;;;;4974108;28;20476;-54
2021/08/19 08:53:12;;;;;;;2.00;1.90;;;22.90;99.90;;;;;;4975964;28;20544;-59
2021/08/19 08:55:38;;;;;;;1.77;1.50;;;23.10;99.90;;;;;;4976101;28;20405;-59
2021/08/19 08:58:05;;;;;;;1.63;1.53;;;23.10;99.90;;;;;;4977304;28;20401;-58
2021/08/19 09:00:30;;;;;;;1.37;1.27;;;22.80;99.90;;;;;;4976906;28;20397;-58
2021/08/19 09:02:56;;;;;;;2.07;1.73;;;22.70;99.90;;;;;;4976908;28;20420;-58
2021/08/19 09:05:24;;;;;;;1.97;1.60;;;22.90;99.90;;;;;;4977397;28;20181;-58
2021/08/19 09:07:58;;;;;;;1.50;1.40;;;23.20;99.90;;;;;;4977068;28;20280;-59
2021/08/19 09:10:26;;;;;;;1.30;1.10;;;23.40;99.90;;;;;;4976655;28;20401;-59
2021/08/19 09:12:52;;;;;;;2.13;1.80;;;23.20;99.90;;;;;;4976730;28;20522;-56
2021/08/19 09:15:24;;;;;;;2.63;1.90;;;23.30;99.90;;;;;;4977270;28;20424;-59
2021/08/19 09:17:55;;;;;;;6.23;1.93;;;22.90;99.90;;;;;;4976396;28;20424;-58
2021/08/19 09:20:32;;;;;;;2.13;1.80;;;22.70;99.90;;;;;;4965571;28;20791;-58
2021/08/19 09:23:05;;;;;;;2.17;1.97;;;22.60;99.90;;;;;;4976674;28;20427;-58
2021/08/19 09:25:39;;;;;;;2.63;1.77;;;22.10;99.90;;;;;;4976648;28;20390;-58
2021/08/19 09:28:16;;;;;;;1.93;1.70;;;22.10;99.90;;;;;;4976821;28;20412;-59
2021/08/19 09:30:46;;;;;;;2.37;1.40;;;22.10;99.90;;;;;;4976831;28;20435;-54
2021/08/19 09:33:11;;;;;;;1.90;1.53;;;22.30;99.90;;;;;;4976265;28;20531;-59
2021/08/19 09:35:39;;;;;;;1.80;1.70;;;22.60;99.90;;;;;;4976231;28;20495;-58
2021/08/19 09:38:34;;;;;;;1.40;1.30;;;22.90;99.90;;;;;;4976307;28;20169;-57
2021/08/19 09:41:12;;;;;;;1.47;1.37;;;22.70;99.90;;;;;;4973939;28;20424;-59
2021/08/19 09:43:49;;;;;;;4.00;1.87;;;22.80;99.90;;;;;;4976164;28;20404;-59
2021/08/19 09:46:17;;;;;;;2.30;1.60;;;22.90;99.90;;;;;;4975610;28;20813;-56
2021/08/19 09:48:43;;;;;;;2.33;1.60;;;22.80;99.90;;;;;;4976349;28;20477;-58
2021/08/19 09:51:22;;;;;;;1.57;1.23;;;23.20;99.90;;;;;;4976077;28;20412;-58
2021/08/19 09:53:57;;;;;;;2.63;1.33;;;23.10;99.90;;;;;;4958311;28;20396;-56
2021/08/19 09:56:29;;;;;;;2.23;1.50;;;23.60;99.90;;;;;;4975576;28;20840;-59
2021/08/19 09:59:16;;;;;;;1.93;1.00;;;23.60;99.90;;;;;;4976184;28;20551;-59
2021/08/19 10:01:41;;;;;;;2.13;1.40;;;23.40;99.90;;;;;;4965058;28;20436;-59
2021/08/19 10:04:07;;;;;;;1.20;1.10;;;23.70;99.90;;;;;;4975228;28;20408;-57
2021/08/19 10:06:34;;;;;;;1.80;0.90;;;24.20;99.90;;;;;;4975725;28;20200;-59
2021/08/19 10:08:59;;;;;;;1.00;0.83;;;24.60;99.90;;;;;;4976056;28;20204;-59
2021/08/19 10:11:26;;;;;;;1.03;0.87;;;24.90;99.90;;;;;;4975695;28;20972;-59
2021/08/19 10:13:53;;;;;;;3.83;1.10;;;25.00;99.90;;;;;;4976232;28;20192;-59
2021/08/19 10:16:19;;;;;;;1.07;0.90;;;25.20;99.90;;;;;;4975386;28;20527;-59
2021/08/19 10:18:46;;;;;;;1.10;1.00;;;25.00;99.90;;;;;;4976019;28;20441;-59
2021/08/19 10:21:15;;;;;;;1.57;1.30;;;25.20;99.90;;;;;;4975547;28;20409;-59
2021/08/19 10:23:43;;;;;;;1.63;1.30;;;25.10;99.90;;;;;;4975382;28;20929;-55
2021/08/19 10:26:11;;;;;;;1.30;1.00;;;25.00;99.30;;;;;;4975354;28;20620;-59
2021/08/19 10:28:49;;;;;;;2.20;1.30;;;25.00;99.20;;;;;;4975526;28;20913;-59
2021/08/19 10:31:40;;;;;;;1.50;1.10;;;25.10;99.60;;;;;;4975205;28;20440;-59
2021/08/19 10:34:07;;;;;;;2.07;0.93;;;24.90;99.50;;;;;;4975504;28;20897;-58
2021/08/19 10:36:38;;;;;;;1.23;1.10;;;24.60;99.30;;;;;;4989960;28;20415;-57
2021/08/19 10:39:19;;;;;;;1.13;1.03;;;24.50;99.90;;;;;;4994393;28;20499;-59
2021/08/19 10:41:55;;;;;;;1.07;0.97;;;24.70;99.30;;;;;;4994260;28;20430;-59
2021/08/19 10:44:30;;;;;;;1.10;0.97;;;24.80;99.00;;;;;;4994706;28;20384;-59
2021/08/19 10:46:55;;;;;;;1.73;1.10;;;24.80;98.60;;;;;;4985623;28;20448;-59
2021/08/19 10:49:30;;;;;;;1.70;0.90;;;24.80;99.10;;;;;;4974777;28;20768;-57
2021/08/19 10:52:16;;;;;;;1.43;1.10;;;25.40;99.70;;;;;;4974942;28;20192;-58
2021/08/19 10:54:43;;;;;;;1.20;1.10;;;25.60;99.30;;;;;;4963085;28;20475;-59
2021/08/19 10:57:24;;;;;;;1.23;1.00;;;26.00;97.80;;;;;;4973052;28;20432;-59
2021/08/19 11:00:05;;;;;;;2.20;1.10;;;25.60;97.10;;;;;;4964382;28;20512;-59
2021/08/19 11:02:38;;;;;;;1.53;1.27;;;25.70;97.40;;;;;;4955367;29;20441;-59
2021/08/19 11:05:05;;;;;;;1.77;1.00;;;25.90;98.70;;;;;;4955717;29;20438;-58
2021/08/19 11:07:49;;;;;;;4.17;1.50;;;25.50;97.40;;;;;;4955407;29;20536;-59
2021/08/19 11:10:26;;;;;;;1.43;1.10;;;25.00;97.80;;;;;;4955547;29;20412;-59
2021/08/19 11:12:52;;;;;;;1.37;1.20;;;25.10;99.90;;;;;;4955956;29;20436;-58
2021/08/19 11:15:19;;;;;;;1.47;1.20;;;25.30;98.20;;;;;;4955354;28;20405;-59
2021/08/19 11:17:57;;;;;;;1.20;1.10;;;25.20;99.40;;;;;;4969928;28;20223;-59
2021/08/19 11:20:23;;;;;;;1.63;0.90;;;25.30;99.20;;;;;;4975105;28;20420;-59
2021/08/19 11:23:08;;;;;;;1.47;1.37;;;25.40;98.50;;;;;;4974691;28;20417;-57
2021/08/19 11:25:38;;;;;;;1.40;1.20;;;25.30;98.10;;;;;;4974493;28;20649;-59
2021/08/19 11:28:18;;;;;;;1.40;0.90;;;25.00;99.30;;;;;;4974895;28;20384;-58
2021/08/19 11:30:46;;;;;;;1.47;1.37;;;24.70;99.90;;;;;;4975046;28;20904;-59
2021/08/19 11:33:30;;;;;;;1.90;1.70;;;24.60;99.90;;;;;;4974758;28;20444;-58
2021/08/19 11:36:00;;;;;;;2.73;1.20;;;24.60;99.80;;;;;;4975015;28;20389;-55
2021/08/19 11:38:27;;;;;;;1.13;1.03;;;24.30;99.90;;;;;;4974530;28;20413;-56
2021/08/19 11:40:58;;;;;;;3.83;1.10;;;24.30;99.90;;;;;;4974324;28;20408;-59
2021/08/19 11:43:32;;;;;;;2.33;1.60;;;24.00;99.90;;;;;;4974735;28;20428;-59
2021/08/19 11:46:19;;;;;;;1.47;1.30;;;23.70;99.90;;;;;;4974710;28;20841;-59
2021/08/19 11:48:48;;;;;;;1.67;1.57;;;23.70;99.90;;;;;;4974358;28;20397;-59
2021/08/19 11:51:22;;;;;;;1.60;1.50;;;23.50;99.90;;;;;;4974431;28;20396;-59
2021/08/19 11:53:49;;;;;;;2.30;1.37;;;23.40;99.90;;;;;;4973453;28;20447;-59
2021/08/19 11:56:15;;;;;;;4.80;1.50;;;23.60;99.90;;;;;;4974389;28;20921;-59
2021/08/19 11:58:41;;;;;;;1.10;1.00;;;24.20;99.90;;;;;;4974687;28;20397;-57
2021/08/19 12:01:09;;;;;;;1.77;1.60;;;24.20;99.90;;;;;;4974896;28;20463;-59
2021/08/19 12:03:38;;;;;;;1.03;0.90;;;24.50;99.90;;;;;;4974429;28;20165;-59
2021/08/19 12:06:06;;;;;;;1.33;1.23;;;25.20;99.90;;;;;;4974499;28;20921;-59
2021/08/19 12:08:34;;;;;;;2.07;1.60;;;25.60;98.60;;;;;;4974431;28;20407;-59
2021/08/19 12:11:01;;;;;;;1.67;1.53;;;26.10;98.20;;;;;;4974096;28;20440;-59
2021/08/19 12:13:28;;;;;;;2.30;1.67;;;26.60;98.10;;;;;;4974268;28;20405;-58
2021/08/19 12:15:54;;;;;;;1.77;1.67;;;26.80;97.10;;;;;;4973950;28;20393;-60
2021/08/19 12:18:23;;;;;;;1.13;1.03;;;26.90;97.60;;;;;;4973819;28;20878;-57
2021/08/19 12:20:51;;;;;;;1.30;1.17;;;26.90;96.60;;;;;;4974116;28;20807;-59
2021/08/19 12:23:22;;;;;;;1.47;1.37;;;26.60;96.60;;;;;;4974192;28;20481;-59
2021/08/19 12:25:49;;;;;;;1.70;1.10;;;26.60;97.00;;;;;;4973677;28;20505;-56
2021/08/19 12:28:17;;;;;;;2.10;1.60;;;26.20;97.90;;;;;;4990498;28;20769;-58
2021/08/19 12:31:00;;;;;;;1.50;1.30;;;25.80;98.80;;;;;;4996793;28;20396;-58
2021/08/19 12:33:33;;;;;;;2.07;1.77;;;25.60;98.90;;;;;;4996856;28;20416;-57
2021/08/19 12:36:31;;;;;;;7.80;1.53;;;25.20;99.20;;;;;;4996867;28;20788;-59
2021/08/19 12:39:17;;;;;;;2.40;2.00;;;25.20;99.30;;;;;;4981751;28;20470;-59
2021/08/19 12:41:44;;;;;;;1.40;1.30;;;25.50;99.80;;;;;;4996804;28;20474;-59
2021/08/19 12:44:12;;;;;;;1.50;1.30;;;25.50;99.90;;;;;;4996697;28;20419;-59
2021/08/19 12:46:46;;;;;;;3.50;1.70;;;25.40;99.90;;;;;;4990398;28;20518;-59
2021/08/19 12:49:30;;;;;;;2.20;1.50;;;25.20;99.90;;;;;;4977453;28;20416;-59
2021/08/19 12:52:14;;;;;;;4.13;1.97;;;25.20;99.90;;;;;;4977519;28;20795;-59
2021/08/19 12:54:55;;;;;;;5.70;2.10;;;25.20;99.90;;;;;;4977383;28;20471;-59
2021/08/19 12:57:31;;;;;;;2.60;1.70;;;25.30;99.90;;;;;;4977110;28;20471;-59